Time,TemperatureF,DewpointF,PressureIn,WindDirection,WindDirectionDegrees,WindSpeedMPH,WindSpeedGustMPH,Humidity,HourlyPrecipIn,Conditions,Clouds,dailyrainin,SoftwareType,DateUTC
2013-09-16 00:02:00,55.7,46.1,29.71,East,94,3.0,4.0,70,0.00,,,0.00,Wunderground v.1.15,2013-09-16 07:02:00,
2013-09-16 00:08:00,55.6,46.3,29.72,East,94,2.0,4.0,71,0.00,,,0.00,Wunderground v.1.15,2013-09-16 07:08:00,
2013-09-16 00:13:00,55.5,46.2,29.72,East,94,1.0,2.0,71,0.00,,,0.00,Wunderground v.1.15,2013-09-16 07:13:00,
2013-09-16 00:20:00,55.5,46.2,29.72,ESE,107,2.0,8.0,71,0.00,,,0.00,Wunderground v.1.15,2013-09-16 07:20:00,
2013-09-16 00:26:00,55.7,46.4,29.72,East,101,5.0,8.0,71,0.00,,,0.00,Wunderground v.1.15,2013-09-16 07:26:00,
2013-09-16 00:31:00,55.7,46.4,29.72,East,101,3.0,4.0,71,0.00,,,0.00,Wunderground v.1.15,2013-09-16 07:31:00,
2013-09-16 00:38:00,55.6,46.3,29.72,East,101,2.0,4.0,71,0.00,,,0.00,Wunderground v.1.15,2013-09-16 07:38:00,
2013-09-16 00:44:00,55.6,46.7,29.73,East,101,3.0,6.0,72,0.00,,,0.00,Wunderground v.1.15,2013-09-16 07:44:00,
2013-09-16 00:50:00,55.4,46.5,29.72,East,101,3.0,3.0,72,0.00,,,0.00,Wunderground v.1.15,2013-09-16 07:50:00,
2013-09-16 00:55:00,55.4,46.5,29.73,East,101,2.0,3.0,72,0.00,,,0.00,Wunderground v.1.15,2013-09-16 07:55:00,
2013-09-16 01:02:00,55.4,46.9,29.73,East,101,1.0,3.0,73,0.00,,,0.00,Wunderground v.1.15,2013-09-16 08:02:00,
2013-09-16 01:08:00,55.5,47.0,29.73,East,101,2.0,3.0,73,0.00,,,0.00,Wunderground v.1.15,2013-09-16 08:08:00,
2013-09-16 01:13:00,55.5,47.0,29.73,East,93,3.0,6.0,73,0.00,,,0.00,Wunderground v.1.15,2013-09-16 08:13:00,
2013-09-16 01:20:00,55.5,47.0,29.73,East,93,4.0,4.0,73,0.00,,,0.00,Wunderground v.1.15,2013-09-16 08:20:00,
2013-09-16 01:26:00,55.4,46.9,29.73,East,93,1.0,4.0,73,0.00,,,0.00,Wunderground v.1.15,2013-09-16 08:26:00,
2013-09-16 01:32:00,55.2,47.1,29.74,East,93,1.0,1.0,74,0.00,,,0.00,Wunderground v.1.15,2013-09-16 08:32:00,
2013-09-16 01:37:00,55.1,47.0,29.74,East,93,1.0,1.0,74,0.00,,,0.00,Wunderground v.1.15,2013-09-16 08:37:00,
2013-09-16 01:44:00,54.9,46.8,29.74,East,93,0.0,1.0,74,0.00,,,0.00,Wunderground v.1.15,2013-09-16 08:44:00,
2013-09-16 01:50:00,54.5,46.7,29.74,East,93,0.0,0.0,75,0.00,,,0.00,Wunderground v.1.15,2013-09-16 08:50:00,
2013-09-16 01:56:00,53.5,46.1,29.74,East,93,0.0,1.0,76,0.00,,,0.00,Wunderground v.1.15,2013-09-16 08:56:00,
2013-09-16 02:01:00,53.0,46.3,29.74,East,93,0.0,0.0,78,0.00,,,0.00,Wunderground v.1.15,2013-09-16 09:01:00,
2013-09-16 02:08:00,52.9,46.2,29.74,East,93,0.0,0.0,78,0.00,,,0.00,Wunderground v.1.15,2013-09-16 09:08:00,
2013-09-16 02:14:00,52.9,46.6,29.74,East,93,0.0,0.0,79,0.00,,,0.00,Wunderground v.1.15,2013-09-16 09:14:00,
2013-09-16 02:20:00,52.6,45.9,29.74,East,93,0.0,1.0,78,0.00,,,0.00,Wunderground v.1.15,2013-09-16 09:20:00,
2013-09-16 02:25:00,51.8,45.8,29.74,East,93,0.0,2.0,80,0.00,,,0.00,Wunderground v.1.15,2013-09-16 09:25:00,
2013-09-16 02:32:00,50.9,45.3,29.74,East,93,1.0,1.0,81,0.00,,,0.00,Wunderground v.1.15,2013-09-16 09:32:00,
2013-09-16 02:38:00,50.2,44.9,29.74,East,93,1.0,1.0,82,0.00,,,0.00,Wunderground v.1.15,2013-09-16 09:38:00,
2013-09-16 02:43:00,49.7,45.1,29.74,East,93,0.0,1.0,84,0.00,,,0.00,Wunderground v.1.15,2013-09-16 09:43:00,
2013-09-16 02:50:00,49.7,45.1,29.74,East,93,0.0,0.0,84,0.00,,,0.00,Wunderground v.1.15,2013-09-16 09:50:00,
2013-09-16 02:56:00,49.3,44.7,29.75,East,93,0.0,2.0,84,0.00,,,0.00,Wunderground v.1.15,2013-09-16 09:56:00,
2013-09-16 03:02:00,49.0,44.7,29.75,East,93,0.0,0.0,85,0.00,,,0.00,Wunderground v.1.15,2013-09-16 10:02:00,
2013-09-16 03:07:00,48.9,44.9,29.75,East,93,0.0,0.0,86,0.00,,,0.00,Wunderground v.1.15,2013-09-16 10:07:00,
2013-09-16 03:14:00,48.9,44.6,29.75,East,93,0.0,0.0,85,0.00,,,0.00,Wunderground v.1.15,2013-09-16 10:14:00,
2013-09-16 03:20:00,48.9,44.9,29.75,East,93,0.0,1.0,86,0.00,,,0.00,Wunderground v.1.15,2013-09-16 10:20:00,
2013-09-16 03:26:00,48.5,44.2,29.75,East,93,0.0,1.0,85,0.00,,,0.00,Wunderground v.1.15,2013-09-16 10:26:00,
2013-09-16 03:32:00,48.3,44.3,29.75,East,93,0.0,0.0,86,0.00,,,0.00,Wunderground v.1.15,2013-09-16 10:32:00,
2013-09-16 03:38:00,48.0,44.0,29.75,East,93,0.0,0.0,86,0.00,,,0.00,Wunderground v.1.15,2013-09-16 10:38:00,
2013-09-16 03:44:00,47.7,43.7,29.75,East,93,0.0,1.0,86,0.00,,,0.00,Wunderground v.1.15,2013-09-16 10:44:00,
2013-09-16 03:49:00,47.2,43.2,29.76,East,93,1.0,1.0,86,0.00,,,0.00,Wunderground v.1.15,2013-09-16 10:49:00,
2013-09-16 03:56:00,47.0,43.3,29.76,East,93,0.0,1.0,87,0.00,,,0.00,Wunderground v.1.15,2013-09-16 10:56:00,
2013-09-16 04:02:00,46.8,42.8,29.76,East,93,0.0,0.0,86,0.00,,,0.00,Wunderground v.1.15,2013-09-16 11:02:00,
2013-09-16 04:08:00,46.6,42.6,29.76,East,93,0.0,0.0,86,0.00,,,0.00,Wunderground v.1.15,2013-09-16 11:08:00,
2013-09-16 04:14:00,46.3,42.6,29.76,East,93,0.0,0.0,87,0.00,,,0.00,Wunderground v.1.15,2013-09-16 11:14:00,
2013-09-16 04:20:00,46.3,42.9,29.77,East,93,0.0,0.0,88,0.00,,,0.00,Wunderground v.1.15,2013-09-16 11:20:00,
2013-09-16 04:26:00,46.3,42.9,29.77,East,93,0.0,0.0,88,0.00,,,0.00,Wunderground v.1.15,2013-09-16 11:26:00,
2013-09-16 04:31:00,46.3,42.9,29.77,East,93,0.0,0.0,88,0.00,,,0.00,Wunderground v.1.15,2013-09-16 11:31:00,
2013-09-16 04:38:00,46.5,43.1,29.77,East,93,0.0,0.0,88,0.00,,,0.00,Wunderground v.1.15,2013-09-16 11:38:00,
2013-09-16 04:44:00,46.6,43.2,29.77,East,93,0.0,0.0,88,0.00,,,0.00,Wunderground v.1.15,2013-09-16 11:44:00,
2013-09-16 04:50:00,46.6,43.2,29.77,East,93,0.0,0.0,88,0.00,,,0.00,Wunderground v.1.15,2013-09-16 11:50:00,
2013-09-16 04:56:00,46.6,43.2,29.77,East,93,0.0,0.0,88,0.00,,,0.00,Wunderground v.1.15,2013-09-16 11:56:00,
2013-09-16 05:02:00,46.5,43.1,29.77,East,93,0.0,0.0,88,0.00,,,0.00,Wunderground v.1.15,2013-09-16 12:02:00,
2013-09-16 05:08:00,46.7,43.6,29.77,East,93,0.0,0.0,89,0.00,,,0.00,Wunderground v.1.15,2013-09-16 12:08:00,
2013-09-16 05:14:00,46.9,43.5,29.77,East,93,0.0,0.0,88,0.00,,,0.00,Wunderground v.1.15,2013-09-16 12:14:00,
2013-09-16 05:19:00,46.9,43.5,29.77,East,93,0.0,0.0,88,0.00,,,0.00,Wunderground v.1.15,2013-09-16 12:19:00,
2013-09-16 05:26:00,46.8,43.4,29.77,East,93,0.0,0.0,88,0.00,,,0.00,Wunderground v.1.15,2013-09-16 12:26:00,
2013-09-16 05:32:00,46.7,43.3,29.77,East,93,0.0,2.0,88,0.00,,,0.00,Wunderground v.1.15,2013-09-16 12:32:00,
2013-09-16 05:38:00,46.5,43.1,29.78,East,93,1.0,2.0,88,0.00,,,0.00,Wunderground v.1.15,2013-09-16 12:38:00,
2013-09-16 05:44:00,46.5,43.1,29.78,East,93,0.0,1.0,88,0.00,,,0.00,Wunderground v.1.15,2013-09-16 12:44:00,
2013-09-16 05:50:00,46.7,43.0,29.78,East,93,1.0,2.0,87,0.00,,,0.00,Wunderground v.1.15,2013-09-16 12:50:00,
2013-09-16 05:56:00,46.5,42.8,29.78,East,93,1.0,2.0,87,0.00,,,0.00,Wunderground v.1.15,2013-09-16 12:56:00,
2013-09-16 06:01:00,46.7,42.7,29.79,East,93,1.0,2.0,86,0.00,,,0.00,Wunderground v.1.15,2013-09-16 13:01:00,
2013-09-16 06:08:00,46.9,42.9,29.79,East,93,1.0,2.0,86,0.00,,,0.00,Wunderground v.1.15,2013-09-16 13:08:00,
2013-09-16 06:14:00,47.1,42.8,29.79,East,94,0.0,1.0,85,0.00,,,0.00,Wunderground v.1.15,2013-09-16 13:14:00,
2013-09-16 06:20:00,47.0,42.4,29.79,East,93,1.0,1.0,84,0.00,,,0.00,Wunderground v.1.15,2013-09-16 13:20:00,
2013-09-16 06:26:00,46.9,42.3,29.79,East,93,0.0,1.0,84,0.00,,,0.00,Wunderground v.1.15,2013-09-16 13:26:00,
2013-09-16 06:32:00,46.7,42.4,29.79,East,93,0.0,0.0,85,0.00,,,0.00,Wunderground v.1.15,2013-09-16 13:32:00,
2013-09-16 06:38:00,46.5,42.5,29.78,East,93,0.0,0.0,86,0.00,,,0.00,Wunderground v.1.15,2013-09-16 13:38:00,
2013-09-16 06:43:00,46.3,42.3,29.79,East,93,0.0,1.0,86,0.00,,,0.00,Wunderground v.1.15,2013-09-16 13:43:00,
2013-09-16 06:50:00,46.0,42.0,29.79,East,93,0.0,0.0,86,0.00,,,0.00,Wunderground v.1.15,2013-09-16 13:50:00,
2013-09-16 06:56:00,45.7,42.1,29.79,East,93,0.0,0.0,87,0.00,,,0.00,Wunderground v.1.15,2013-09-16 13:56:00,
2013-09-16 07:02:00,45.6,42.0,29.79,East,93,0.0,0.0,87,0.00,,,0.00,Wunderground v.1.15,2013-09-16 14:02:00,
2013-09-16 07:07:00,45.5,42.2,29.80,East,93,0.0,0.0,88,0.00,,,0.00,Wunderground v.1.15,2013-09-16 14:07:00,
2013-09-16 07:14:00,45.6,42.0,29.80,East,93,0.0,0.0,87,0.00,,,0.00,Wunderground v.1.15,2013-09-16 14:14:00,
2013-09-16 07:20:00,45.4,41.8,29.80,East,93,0.0,0.0,87,0.00,,,0.00,Wunderground v.1.15,2013-09-16 14:20:00,
2013-09-16 07:25:00,45.3,42.0,29.80,East,93,0.0,0.0,88,0.00,,,0.00,Wunderground v.1.15,2013-09-16 14:25:00,
2013-09-16 07:32:00,45.9,42.8,29.80,East,94,0.0,0.0,89,0.00,,,0.00,Wunderground v.1.15,2013-09-16 14:32:00,
2013-09-16 07:37:00,46.8,43.1,29.80,East,94,0.0,0.0,87,0.00,,,0.00,Wunderground v.1.15,2013-09-16 14:37:00,
2013-09-16 07:44:00,47.4,43.1,29.81,East,94,0.0,1.0,85,0.00,,,0.00,Wunderground v.1.15,2013-09-16 14:44:00,
2013-09-16 07:50:00,47.7,43.4,29.80,East,93,0.0,0.0,85,0.00,,,0.00,Wunderground v.1.15,2013-09-16 14:50:00,
2013-09-16 07:55:00,48.3,43.7,29.81,East,93,0.0,0.0,84,0.00,,,0.00,Wunderground v.1.15,2013-09-16 14:55:00,
2013-09-16 08:01:00,49.2,44.3,29.81,East,93,0.0,0.0,83,0.00,,,0.00,Wunderground v.1.15,2013-09-16 15:01:00,
2013-09-16 08:08:00,50.5,44.9,29.81,East,93,0.0,2.0,81,0.00,,,0.00,Wunderground v.1.15,2013-09-16 15:08:00,
2013-09-16 08:14:00,51.5,45.2,29.81,East,93,0.0,0.0,79,0.00,,,0.00,Wunderground v.1.15,2013-09-16 15:14:00,
2013-09-16 08:19:00,52.3,45.3,29.81,East,93,0.0,0.0,77,0.00,,,0.00,Wunderground v.1.15,2013-09-16 15:19:00,
2013-09-16 08:26:00,52.4,45.7,29.81,East,94,0.0,2.0,78,0.00,,,0.00,Wunderground v.1.15,2013-09-16 15:26:00,
2013-09-16 08:32:00,52.4,45.7,29.81,East,93,0.0,0.0,78,0.00,,,0.00,Wunderground v.1.15,2013-09-16 15:32:00,
2013-09-16 08:37:00,52.8,45.8,29.81,East,94,0.0,1.0,77,0.00,,,0.00,Wunderground v.1.15,2013-09-16 15:37:00,
2013-09-16 08:43:00,53.2,46.2,29.82,East,94,0.0,1.0,77,0.00,,,0.00,Wunderground v.1.15,2013-09-16 15:43:00,
2013-09-16 08:50:00,53.7,46.3,29.82,East,94,0.0,1.0,76,0.00,,,0.00,Wunderground v.1.15,2013-09-16 15:50:00,
2013-09-16 08:56:00,54.2,46.4,29.82,East,94,0.0,0.0,75,0.00,,,0.00,Wunderground v.1.15,2013-09-16 15:56:00,
2013-09-16 09:02:00,54.9,46.8,29.82,East,94,0.0,1.0,74,0.00,,,0.00,Wunderground v.1.15,2013-09-16 16:02:00,
2013-09-16 09:08:00,55.9,47.0,29.82,East,94,0.0,1.0,72,0.00,,,0.00,Wunderground v.1.15,2013-09-16 16:08:00,
2013-09-16 09:14:00,56.6,47.3,29.82,East,94,0.0,0.0,71,0.00,,,0.00,Wunderground v.1.15,2013-09-16 16:14:00,
2013-09-16 09:20:00,57.4,47.3,29.82,East,94,0.0,0.0,69,0.00,,,0.00,Wunderground v.1.15,2013-09-16 16:20:00,
2013-09-16 09:25:00,59.0,48.1,29.82,East,94,0.0,2.0,67,0.00,,,0.00,Wunderground v.1.15,2013-09-16 16:25:00,
2013-09-16 09:32:00,60.3,47.6,29.82,East,94,1.0,2.0,63,0.00,,,0.00,Wunderground v.1.15,2013-09-16 16:32:00,
2013-09-16 09:38:00,60.9,46.9,29.82,East,90,2.0,6.0,60,0.00,,,0.00,Wunderground v.1.15,2013-09-16 16:38:00,
2013-09-16 09:44:00,61.4,46.9,29.82,East,90,3.0,3.0,59,0.00,,,0.00,Wunderground v.1.15,2013-09-16 16:44:00,
2013-09-16 09:49:00,61.9,47.4,29.82,East,90,1.0,1.0,59,0.00,,,0.00,Wunderground v.1.15,2013-09-16 16:49:00,
2013-09-16 09:56:00,62.1,46.7,29.82,East,89,2.0,7.0,57,0.00,,,0.00,Wunderground v.1.15,2013-09-16 16:56:00,
2013-09-16 10:02:00,61.1,47.1,29.82,East,86,5.0,7.0,60,0.00,,,0.00,Wunderground v.1.15,2013-09-16 17:02:00,
2013-09-16 10:08:00,61.5,46.6,29.82,East,86,5.0,7.0,58,0.00,,,0.00,Wunderground v.1.15,2013-09-16 17:08:00,
2013-09-16 10:13:00,61.9,47.0,29.82,East,86,3.0,6.0,58,0.00,,,0.00,Wunderground v.1.15,2013-09-16 17:13:00,
2013-09-16 10:20:00,61.5,46.6,29.82,ESE,105,5.0,6.0,58,0.00,,,0.00,Wunderground v.1.15,2013-09-16 17:20:00,
2013-09-16 10:26:00,61.9,47.0,29.82,East,99,3.0,5.0,58,0.00,,,0.00,Wunderground v.1.15,2013-09-16 17:26:00,
2013-09-16 10:31:00,62.7,46.8,29.82,East,99,2.0,2.0,56,0.00,,,0.00,Wunderground v.1.15,2013-09-16 17:31:00,
2013-09-16 10:38:00,63.0,47.1,29.82,East,98,2.0,2.0,56,0.00,,,0.00,Wunderground v.1.15,2013-09-16 17:38:00,
2013-09-16 10:44:00,63.9,47.4,29.82,East,81,1.0,3.0,55,0.00,,,0.00,Wunderground v.1.15,2013-09-16 17:44:00,
2013-09-16 10:50:00,64.7,46.7,29.82,NNE,18,2.0,4.0,52,0.00,,,0.00,Wunderground v.1.15,2013-09-16 17:50:00,
2013-09-16 10:55:00,64.7,46.7,29.82,NE,50,2.0,3.0,52,0.00,,,0.00,Wunderground v.1.15,2013-09-16 17:55:00,
2013-09-16 11:02:00,64.9,46.8,29.82,ENE,57,2.0,4.0,52,0.00,,,0.00,Wunderground v.1.15,2013-09-16 18:02:00,
2013-09-16 11:08:00,65.2,47.1,29.82,ENE,57,2.0,4.0,52,0.00,,,0.00,Wunderground v.1.15,2013-09-16 18:08:00,
2013-09-16 11:14:00,66.1,48.0,29.82,NE,46,1.0,2.0,52,0.00,,,0.00,Wunderground v.1.15,2013-09-16 18:14:00,
2013-09-16 11:19:00,66.9,47.6,29.82,NE,36,2.0,5.0,50,0.00,,,0.00,Wunderground v.1.15,2013-09-16 18:19:00,
2013-09-16 11:26:00,66.6,48.4,29.82,North,9,2.0,3.0,52,0.00,,,0.00,Wunderground v.1.15,2013-09-16 18:26:00,
2013-09-16 11:32:00,66.3,47.1,29.82,North,360,3.0,3.0,50,0.00,,,0.00,Wunderground v.1.15,2013-09-16 18:32:00,
2013-09-16 11:37:00,65.9,47.8,29.82,North,355,3.0,7.0,52,0.00,,,0.00,Wunderground v.1.15,2013-09-16 18:37:00,
2013-09-16 11:44:00,66.4,47.2,29.82,North,355,3.0,3.0,50,0.00,,,0.00,Wunderground v.1.15,2013-09-16 18:44:00,
2013-09-16 11:50:00,66.9,47.1,29.82,NNE,13,3.0,3.0,49,0.00,,,0.00,Wunderground v.1.15,2013-09-16 18:50:00,
2013-09-16 11:56:00,67.2,47.4,29.82,NNE,15,2.0,4.0,49,0.00,,,0.00,Wunderground v.1.15,2013-09-16 18:56:00,
2013-09-16 12:01:00,66.6,47.9,29.82,NNE,14,2.0,4.0,51,0.00,,,0.00,Wunderground v.1.15,2013-09-16 19:01:00,
2013-09-16 12:08:00,67.1,46.7,29.82,NNE,14,3.0,4.0,48,0.00,,,0.00,Wunderground v.1.15,2013-09-16 19:08:00,
2013-09-16 12:14:00,67.4,48.1,29.82,North,9,3.0,3.0,50,0.00,,,0.00,Wunderground v.1.15,2013-09-16 19:14:00,
2013-09-16 12:19:00,67.7,47.3,29.82,North,9,1.0,1.0,48,0.00,,,0.00,Wunderground v.1.15,2013-09-16 19:19:00,
2013-09-16 12:25:00,68.3,47.3,29.81,East,86,1.0,8.0,47,0.00,,,0.00,Wunderground v.1.15,2013-09-16 19:25:00,
2013-09-16 12:32:00,67.4,46.5,29.82,East,86,3.0,3.0,47,0.00,,,0.00,Wunderground v.1.15,2013-09-16 19:32:00,
2013-09-16 12:38:00,67.1,47.3,29.81,East,92,4.0,8.0,49,0.00,,,0.00,Wunderground v.1.15,2013-09-16 19:38:00,
2013-09-16 12:43:00,66.3,47.1,29.81,ESE,111,6.0,8.0,50,0.00,,,0.00,Wunderground v.1.15,2013-09-16 19:43:00,
2013-09-16 12:50:00,66.8,47.6,29.81,NNE,19,4.0,5.0,50,0.00,,,0.00,Wunderground v.1.15,2013-09-16 19:50:00,
2013-09-16 12:56:00,68.5,48.6,29.81,NNE,13,2.0,6.0,49,0.00,,,0.00,Wunderground v.1.15,2013-09-16 19:56:00,
2013-09-16 13:02:00,69.0,47.4,29.81,NE,40,4.0,4.0,46,0.00,,,0.00,Wunderground v.1.15,2013-09-16 20:02:00,
2013-09-16 13:07:00,68.9,47.8,29.81,NE,38,3.0,4.0,47,0.00,,,0.00,Wunderground v.1.15,2013-09-16 20:07:00,
2013-09-16 13:14:00,69.7,47.4,29.81,NE,35,2.0,2.0,45,0.00,,,0.00,Wunderground v.1.15,2013-09-16 20:14:00,
2013-09-16 13:20:00,69.7,48.0,29.81,North,9,2.0,5.0,46,0.00,,,0.00,Wunderground v.1.15,2013-09-16 20:20:00,
2013-09-16 13:25:00,69.0,46.8,29.81,ESE,105,4.0,9.0,45,0.00,,,0.00,Wunderground v.1.15,2013-09-16 20:25:00,
2013-09-16 13:31:00,67.8,46.8,29.80,ENE,74,6.0,7.0,47,0.00,,,0.00,Wunderground v.1.15,2013-09-16 20:31:00,
2013-09-16 13:38:00,69.3,48.8,29.80,ENE,67,3.0,7.0,48,0.00,,,0.00,Wunderground v.1.15,2013-09-16 20:38:00,
2013-09-16 13:44:00,70.3,47.9,29.80,NE,45,3.0,5.0,45,0.00,,,0.00,Wunderground v.1.15,2013-09-16 20:44:00,
2013-09-16 13:49:00,70.9,47.9,29.80,NNE,26,3.0,5.0,44,0.00,,,0.00,Wunderground v.1.15,2013-09-16 20:49:00,
2013-09-16 13:56:00,71.0,48.0,29.80,NNE,26,2.0,3.0,44,0.00,,,0.00,Wunderground v.1.15,2013-09-16 20:56:00,
2013-09-16 14:02:00,71.0,48.6,29.79,North,5,3.0,3.0,45,0.00,,,0.00,Wunderground v.1.15,2013-09-16 21:02:00,
2013-09-16 14:08:00,71.0,48.0,29.79,North,5,3.0,3.0,44,0.00,,,0.00,Wunderground v.1.15,2013-09-16 21:08:00,
2013-09-16 14:13:00,71.0,48.6,29.79,ENE,75,3.0,5.0,45,0.00,,,0.00,Wunderground v.1.15,2013-09-16 21:13:00,
2013-09-16 14:20:00,70.1,47.2,29.79,ENE,63,6.0,6.0,44,0.00,,,0.00,Wunderground v.1.15,2013-09-16 21:20:00,
2013-09-16 14:26:00,70.0,47.1,29.79,ENE,75,5.0,7.0,44,0.00,,,0.00,Wunderground v.1.15,2013-09-16 21:26:00,
2013-09-16 14:32:00,70.1,48.4,29.79,ENE,70,4.0,4.0,46,0.00,,,0.00,Wunderground v.1.15,2013-09-16 21:32:00,
2013-09-16 14:38:00,70.8,47.8,29.78,NNE,21,2.0,5.0,44,0.00,,,0.00,Wunderground v.1.15,2013-09-16 21:38:00,
2013-09-16 14:44:00,71.2,48.2,29.78,NNE,31,3.0,7.0,44,0.00,,,0.00,Wunderground v.1.15,2013-09-16 21:44:00,
2013-09-16 14:50:00,71.0,47.4,29.78,ENE,78,4.0,7.0,43,0.00,,,0.00,Wunderground v.1.15,2013-09-16 21:50:00,
2013-09-16 14:55:00,70.6,47.6,29.78,NNE,17,5.0,7.0,44,0.00,,,0.00,Wunderground v.1.15,2013-09-16 21:55:00,
2013-09-16 15:02:00,71.3,48.9,29.77,NE,51,4.0,4.0,45,0.00,,,0.00,Wunderground v.1.15,2013-09-16 22:02:00,
2013-09-16 15:08:00,71.3,48.3,29.77,East,79,4.0,8.0,44,0.00,,,0.00,Wunderground v.1.15,2013-09-16 22:08:00,
2013-09-16 15:14:00,71.4,48.3,29.78,North,9,4.0,7.0,44,0.00,,,0.00,Wunderground v.1.15,2013-09-16 22:14:00,
2013-09-16 15:20:00,71.9,48.8,29.77,NW,311,3.0,7.0,44,0.00,,,0.00,Wunderground v.1.15,2013-09-16 22:20:00,
2013-09-16 15:26:00,71.7,48.0,29.77,NNW,331,4.0,9.0,43,0.00,,,0.00,Wunderground v.1.15,2013-09-16 22:26:00,
2013-09-16 15:32:00,71.1,48.7,29.77,WNW,293,4.0,4.0,45,0.00,,,0.00,Wunderground v.1.15,2013-09-16 22:32:00,
2013-09-16 15:37:00,71.1,47.5,29.77,North,360,4.0,5.0,43,0.00,,,0.00,Wunderground v.1.15,2013-09-16 22:37:00,
2013-09-16 15:44:00,71.0,48.0,29.77,NW,324,4.0,9.0,44,0.00,,,0.00,Wunderground v.1.15,2013-09-16 22:44:00,
2013-09-16 15:50:00,70.5,46.9,29.77,NNE,13,6.0,9.0,43,0.00,,,0.00,Wunderground v.1.15,2013-09-16 22:50:00,
2013-09-16 15:56:00,70.2,47.3,29.77,North,5,6.0,8.0,44,0.00,,,0.00,Wunderground v.1.15,2013-09-16 22:56:00,
2013-09-16 16:01:00,70.6,47.0,29.77,North,5,4.0,7.0,43,0.00,,,0.00,Wunderground v.1.15,2013-09-16 23:01:00,
2013-09-16 16:08:00,69.8,47.5,29.77,NNW,336,6.0,10.0,45,0.00,,,0.00,Wunderground v.1.15,2013-09-16 23:08:00,
2013-09-16 16:14:00,69.9,48.2,29.77,WNW,298,6.0,8.0,46,0.00,,,0.00,Wunderground v.1.15,2013-09-16 23:14:00,
2013-09-16 16:19:00,69.9,47.0,29.77,North,355,6.0,8.0,44,0.00,,,0.00,Wunderground v.1.15,2013-09-16 23:19:00,
2013-09-16 16:25:00,70.0,47.7,29.77,North,350,5.0,6.0,45,0.00,,,0.00,Wunderground v.1.15,2013-09-16 23:25:00,
2013-09-16 16:32:00,70.2,47.9,29.77,NNW,333,4.0,6.0,45,0.00,,,0.00,Wunderground v.1.15,2013-09-16 23:32:00,
2013-09-16 16:38:00,70.5,47.5,29.77,NW,322,3.0,6.0,44,0.00,,,0.00,Wunderground v.1.15,2013-09-16 23:38:00,
2013-09-16 16:43:00,70.3,46.7,29.77,NW,325,4.0,8.0,43,0.00,,,0.00,Wunderground v.1.15,2013-09-16 23:43:00,
2013-09-16 16:50:00,70.2,47.3,29.77,North,355,4.0,8.0,44,0.00,,,0.00,Wunderground v.1.15,2013-09-16 23:50:00,
2013-09-16 16:56:00,69.3,47.0,29.77,NNE,14,5.0,7.0,45,0.00,,,0.00,Wunderground v.1.15,2013-09-16 23:56:00,
2013-09-16 17:01:00,68.9,46.1,29.77,NNW,329,6.0,6.0,44,0.00,,,0.00,Wunderground v.1.15,2013-09-17 00:01:00,
2013-09-16 17:07:00,68.5,46.9,29.77,NNW,335,6.0,8.0,46,0.00,,,0.00,Wunderground v.1.15,2013-09-17 00:07:00,
2013-09-16 17:14:00,68.5,46.9,29.77,NW,324,6.0,10.0,46,0.00,,,0.00,Wunderground v.1.15,2013-09-17 00:14:00,
2013-09-16 17:20:00,68.2,46.6,29.77,NNE,13,5.0,10.0,46,0.00,,,0.00,Wunderground v.1.15,2013-09-17 00:20:00,
2013-09-16 17:25:00,68.4,46.8,29.77,WNW,303,4.0,5.0,46,0.00,,,0.00,Wunderground v.1.15,2013-09-17 00:25:00,
2013-09-16 17:32:00,68.3,46.7,29.77,NW,309,5.0,5.0,46,0.00,,,0.00,Wunderground v.1.15,2013-09-17 00:32:00,
2013-09-16 17:38:00,67.8,46.8,29.77,NW,309,6.0,8.0,47,0.00,,,0.00,Wunderground v.1.15,2013-09-17 00:38:00,
2013-09-16 17:44:00,67.2,46.3,29.77,NW,317,6.0,11.0,47,0.00,,,0.00,Wunderground v.1.15,2013-09-17 00:44:00,
2013-09-16 17:49:00,66.9,46.0,29.77,WNW,293,5.0,13.0,47,0.00,,,0.00,Wunderground v.1.15,2013-09-17 00:49:00,
2013-09-16 17:56:00,66.6,46.3,29.77,NW,325,6.0,9.0,48,0.00,,,0.00,Wunderground v.1.15,2013-09-17 00:56:00,
2013-09-16 18:02:00,66.1,45.8,29.77,NW,318,6.0,10.0,48,0.00,,,0.00,Wunderground v.1.15,2013-09-17 01:02:00,
2013-09-16 18:08:00,65.6,45.9,29.77,NW,321,6.0,10.0,49,0.00,,,0.00,Wunderground v.1.15,2013-09-17 01:08:00,
2013-09-16 18:13:00,65.5,45.8,29.77,NW,316,5.0,10.0,49,0.00,,,0.00,Wunderground v.1.15,2013-09-17 01:13:00,
2013-09-16 18:20:00,64.8,46.2,29.77,NW,314,5.0,10.0,51,0.00,,,0.00,Wunderground v.1.15,2013-09-17 01:20:00,
2013-09-16 18:26:00,64.1,46.1,29.77,NNW,327,4.0,5.0,52,0.00,,,0.00,Wunderground v.1.15,2013-09-17 01:26:00,
2013-09-16 18:31:00,63.4,45.5,29.77,NW,308,5.0,5.0,52,0.00,,,0.00,Wunderground v.1.15,2013-09-17 01:31:00,
2013-09-16 18:38:00,62.9,45.5,29.78,NW,313,5.0,5.0,53,0.00,,,0.00,Wunderground v.1.15,2013-09-17 01:38:00,
2013-09-16 18:44:00,62.6,45.2,29.78,NW,317,4.0,7.0,53,0.00,,,0.00,Wunderground v.1.15,2013-09-17 01:44:00,
2013-09-16 18:50:00,62.4,45.5,29.78,WNW,303,6.0,7.0,54,0.00,,,0.00,Wunderground v.1.15,2013-09-17 01:50:00,
2013-09-16 18:55:00,62.0,45.6,29.78,NNW,331,5.0,8.0,55,0.00,,,0.00,Wunderground v.1.15,2013-09-17 01:55:00,
2013-09-16 19:02:00,61.6,45.3,29.78,NW,314,5.0,5.0,55,0.00,,,0.00,Wunderground v.1.15,2013-09-17 02:02:00,
2013-09-16 19:08:00,61.1,45.3,29.78,NW,323,5.0,6.0,56,0.00,,,0.00,Wunderground v.1.15,2013-09-17 02:08:00,
2013-09-16 19:13:00,60.7,44.9,29.78,NNW,329,5.0,5.0,56,0.00,,,0.00,Wunderground v.1.15,2013-09-17 02:13:00,
2013-09-16 19:20:00,60.5,45.2,29.78,NW,315,4.0,5.0,57,0.00,,,0.00,Wunderground v.1.15,2013-09-17 02:20:00,
2013-09-16 19:26:00,60.2,44.9,29.78,NW,315,3.0,3.0,57,0.00,,,0.00,Wunderground v.1.15,2013-09-17 02:26:00,
2013-09-16 19:32:00,59.8,45.0,29.79,NW,315,2.0,3.0,58,0.00,,,0.00,Wunderground v.1.15,2013-09-17 02:32:00,
2013-09-16 19:37:00,59.4,44.6,29.78,NW,315,2.0,3.0,58,0.00,,,0.00,Wunderground v.1.15,2013-09-17 02:37:00,
2013-09-16 19:44:00,59.1,44.3,29.79,NW,315,1.0,2.0,58,0.00,,,0.00,Wunderground v.1.15,2013-09-17 02:44:00,
2013-09-16 19:50:00,58.9,44.6,29.79,NW,315,1.0,2.0,59,0.00,,,0.00,Wunderground v.1.15,2013-09-17 02:50:00,
2013-09-16 19:56:00,58.6,44.3,29.79,NW,315,0.0,2.0,59,0.00,,,0.00,Wunderground v.1.15,2013-09-17 02:56:00,
2013-09-16 20:01:00,58.3,44.0,29.79,NW,315,0.0,0.0,59,0.00,,,0.00,Wunderground v.1.15,2013-09-17 03:01:00,
2013-09-16 20:08:00,58.0,44.6,29.79,NW,315,0.0,0.0,61,0.00,,,0.00,Wunderground v.1.15,2013-09-17 03:08:00,
2013-09-16 20:14:00,57.5,44.1,29.79,NW,315,0.0,0.0,61,0.00,,,0.00,Wunderground v.1.15,2013-09-17 03:14:00,
2013-09-16 20:19:00,57.2,44.3,29.80,NW,315,0.0,0.0,62,0.00,,,0.00,Wunderground v.1.15,2013-09-17 03:19:00,
2013-09-16 20:25:00,56.9,44.4,29.80,NW,315,0.0,0.0,63,0.00,,,0.00,Wunderground v.1.15,2013-09-17 03:25:00,
2013-09-16 20:32:00,56.6,44.1,29.80,NW,315,0.0,0.0,63,0.00,,,0.00,Wunderground v.1.15,2013-09-17 03:32:00,
2013-09-16 20:38:00,56.3,44.3,29.80,NW,315,0.0,0.0,64,0.00,,,0.00,Wunderground v.1.15,2013-09-17 03:38:00,
2013-09-16 20:43:00,56.0,44.4,29.81,NW,315,0.0,0.0,65,0.00,,,0.00,Wunderground v.1.15,2013-09-17 03:43:00,
2013-09-16 20:50:00,55.8,44.6,29.81,NW,315,0.0,0.0,66,0.00,,,0.00,Wunderground v.1.15,2013-09-17 03:50:00,
2013-09-16 20:56:00,55.6,44.4,29.81,NW,315,0.0,0.0,66,0.00,,,0.00,Wunderground v.1.15,2013-09-17 03:56:00,
2013-09-16 21:01:00,55.4,44.6,29.80,NW,315,0.0,0.0,67,0.00,,,0.00,Wunderground v.1.15,2013-09-17 04:01:00,
2013-09-16 21:03:00,55.3,44.1,29.81,NW,315,0.0,0.0,66,0.00,,,0.00,Wunderground v.1.15,2013-09-17 04:03:00,
2013-09-16 21:05:00,55.2,44.0,29.81,NW,315,0.0,0.0,66,0.00,,,0.00,Wunderground v.1.15,2013-09-17 04:05:00,
2013-09-16 21:07:00,55.2,44.4,29.81,NW,315,0.0,0.0,67,0.00,,,0.00,Wunderground v.1.15,2013-09-17 04:07:00,
2013-09-16 21:12:00,55.1,44.3,29.81,NW,315,0.0,0.0,67,0.00,,,0.00,Wunderground v.1.15,2013-09-17 04:12:00,
2013-09-16 21:14:00,55.0,44.2,29.80,NW,315,0.0,0.0,67,0.00,,,0.00,Wunderground v.1.15,2013-09-17 04:14:00,
2013-09-16 21:20:00,54.8,44.8,29.81,NW,315,0.0,0.0,69,0.00,,,0.00,Wunderground v.1.15,2013-09-17 04:20:00,
2013-09-16 21:25:00,54.3,44.3,29.81,NW,315,0.0,0.0,69,0.00,,,0.00,Wunderground v.1.15,2013-09-17 04:25:00,
2013-09-16 21:32:00,53.9,44.7,29.81,NW,315,0.0,0.0,71,0.00,,,0.00,Wunderground v.1.15,2013-09-17 04:32:00,
2013-09-16 21:38:00,53.7,44.5,29.80,NW,315,0.0,0.0,71,0.00,,,0.00,Wunderground v.1.15,2013-09-17 04:38:00,
2013-09-16 21:43:00,53.5,44.0,29.80,NW,315,0.0,0.0,70,0.00,,,0.00,Wunderground v.1.15,2013-09-17 04:43:00,
2013-09-16 21:49:00,53.5,44.7,29.80,NW,315,0.0,0.0,72,0.00,,,0.00,Wunderground v.1.15,2013-09-17 04:49:00,
2013-09-16 21:56:00,53.3,44.5,29.80,NW,315,0.0,0.0,72,0.00,,,0.00,Wunderground v.1.15,2013-09-17 04:56:00,
2013-09-16 22:02:00,53.2,44.0,29.80,NW,315,0.0,0.0,71,0.00,,,0.00,Wunderground v.1.15,2013-09-17 05:02:00,
2013-09-16 22:08:00,53.1,44.3,29.80,NW,315,0.0,1.0,72,0.00,,,0.00,Wunderground v.1.15,2013-09-17 05:08:00,
2013-09-16 22:14:00,52.9,44.1,29.80,NW,315,0.0,0.0,72,0.00,,,0.00,Wunderground v.1.15,2013-09-17 05:14:00,
2013-09-16 22:20:00,52.7,44.3,29.80,NW,315,0.0,0.0,73,0.00,,,0.00,Wunderground v.1.15,2013-09-17 05:20:00,
2013-09-16 22:26:00,51.7,43.3,29.80,NW,315,0.0,0.0,73,0.00,,,0.00,Wunderground v.1.15,2013-09-17 05:26:00,
2013-09-16 22:31:00,51.2,43.2,29.80,NW,315,0.0,0.0,74,0.00,,,0.00,Wunderground v.1.15,2013-09-17 05:31:00,
2013-09-16 22:38:00,51.0,43.7,29.80,NW,315,0.0,0.0,76,0.00,,,0.00,Wunderground v.1.15,2013-09-17 05:38:00,
2013-09-16 22:44:00,51.0,43.7,29.80,NW,315,0.0,0.0,76,0.00,,,0.00,Wunderground v.1.15,2013-09-17 05:44:00,
2013-09-16 22:50:00,51.2,43.9,29.80,NW,315,0.0,0.0,76,0.00,,,0.00,Wunderground v.1.15,2013-09-17 05:50:00,
2013-09-16 22:56:00,51.2,43.9,29.80,NW,315,0.0,0.0,76,0.00,,,0.00,Wunderground v.1.15,2013-09-17 05:56:00,
2013-09-16 23:02:00,51.2,43.9,29.79,NW,315,0.0,0.0,76,0.00,,,0.00,Wunderground v.1.15,2013-09-17 06:02:00,
2013-09-16 23:08:00,51.2,44.2,29.80,NW,315,0.0,0.0,77,0.00,,,0.00,Wunderground v.1.15,2013-09-17 06:08:00,
2013-09-16 23:13:00,50.7,43.8,29.80,NW,315,0.0,0.0,77,0.00,,,0.00,Wunderground v.1.15,2013-09-17 06:13:00,
2013-09-16 23:20:00,50.5,43.9,29.79,NW,315,0.0,0.0,78,0.00,,,0.00,Wunderground v.1.15,2013-09-17 06:20:00,
2013-09-16 23:26:00,50.4,44.1,29.80,NW,315,0.0,0.0,79,0.00,,,0.00,Wunderground v.1.15,2013-09-17 06:26:00,
2013-09-16 23:32:00,50.3,43.7,29.80,NW,315,0.0,0.0,78,0.00,,,0.00,Wunderground v.1.15,2013-09-17 06:32:00,
2013-09-16 23:37:00,49.7,43.5,29.80,NW,315,0.0,1.0,79,0.00,,,0.00,Wunderground v.1.15,2013-09-17 06:37:00,
2013-09-16 23:44:00,49.4,43.5,29.80,NW,315,0.0,0.0,80,0.00,,,0.00,Wunderground v.1.15,2013-09-17 06:44:00,
2013-09-16 23:50:00,49.3,43.7,29.79,NW,315,0.0,0.0,81,0.00,,,0.00,Wunderground v.1.15,2013-09-17 06:50:00,
2013-09-16 23:55:00,49.5,43.9,29.79,NW,315,0.0,0.0,81,0.00,,,0.00,Wunderground v.1.15,2013-09-17 06:55:00,